createdAt,value
2019-04-16T00:00:27.596Z,11.10
2019-04-16T00:02:57.752Z,11.00
2019-04-16T00:05:30.869Z,11.00
2019-04-16T00:08:09.761Z,11.00
2019-04-16T00:10:41.086Z,11.00
2019-04-16T00:13:26.048Z,10.90
2019-04-16T00:15:54.515Z,10.90
2019-04-16T00:18:23.458Z,10.80
2019-04-16T00:20:59.746Z,10.80
2019-04-16T00:23:30.013Z,10.90
2019-04-16T00:25:58.647Z,10.90
2019-04-16T00:28:30.494Z,10.80
2019-04-16T00:30:59.095Z,10.70
2019-04-16T00:33:27.545Z,10.70
2019-04-16T00:35:57.699Z,10.70
2019-04-16T00:38:39.768Z,10.60
2019-04-16T00:41:00.769Z,10.70
2019-04-16T00:43:26.680Z,10.70
2019-04-16T00:46:01.759Z,10.70
2019-04-16T00:48:30.339Z,10.60
2019-04-16T00:50:59.008Z,10.50
2019-04-16T00:53:27.645Z,10.50
2019-04-16T00:56:00.554Z,10.40
2019-04-16T00:58:29.118Z,10.30
2019-04-16T01:00:57.632Z,10.30
2019-04-16T01:03:26.206Z,10.20
2019-04-16T01:05:54.705Z,10.20
2019-04-16T01:08:23.205Z,10.20
2019-04-16T01:10:51.806Z,10.20
2019-04-16T01:13:21.694Z,10.10
2019-04-16T01:15:50.890Z,10.10
2019-04-16T01:18:19.401Z,10.10
2019-04-16T01:20:47.901Z,10.10
2019-04-16T01:23:17.836Z,10.10
2019-04-16T01:25:46.883Z,10.00
2019-04-16T01:28:17.046Z,10.00
2019-04-16T01:30:47.281Z,10.00
2019-04-16T01:36:06.703Z,9.90
2019-04-16T01:38:39.931Z,9.80
2019-04-16T01:41:10.010Z,9.70
2019-04-16T01:43:39.005Z,9.60
2019-04-16T01:46:07.470Z,9.50
2019-04-16T01:48:38.596Z,9.50
2019-04-16T01:51:06.176Z,9.50
2019-04-16T01:53:34.693Z,9.50
2019-04-16T01:56:03.173Z,9.50
2019-04-16T01:58:33.910Z,9.40
2019-04-16T02:01:02.003Z,9.40
2019-04-16T02:03:32.360Z,9.30
2019-04-16T02:06:01.187Z,9.30
2019-04-16T02:08:35.832Z,9.20
2019-04-16T02:11:09.454Z,9.20
2019-04-16T02:13:34.800Z,9.20
2019-04-16T02:16:03.418Z,9.20
2019-04-16T02:18:41.110Z,9.20
2019-04-16T02:21:10.934Z,9.10
2019-04-16T02:23:45.348Z,9.10
2019-04-16T02:26:15.054Z,9.00
2019-04-16T02:28:44.152Z,9.00
2019-04-16T02:31:15.414Z,8.90
2019-04-16T02:33:42.782Z,8.80
2019-04-16T02:36:11.303Z,8.80
2019-04-16T02:38:46.298Z,8.80
2019-04-16T02:41:10.028Z,8.70
2019-04-16T02:43:41.014Z,8.70
2019-04-16T02:46:09.087Z,8.70
2019-04-16T02:48:37.523Z,8.60
2019-04-16T02:51:08.591Z,8.60
2019-04-16T02:53:38.782Z,8.50
2019-04-16T02:56:24.971Z,8.50
2019-04-16T02:58:55.048Z,8.50
2019-04-16T03:01:25.156Z,8.40
2019-04-16T03:04:11.085Z,8.50
2019-04-16T03:06:39.503Z,8.40
2019-04-16T03:09:09.187Z,8.40
2019-04-16T03:11:38.264Z,8.40
2019-04-16T03:14:06.726Z,8.40
2019-04-16T03:16:42.838Z,8.50
2019-04-16T03:19:20.238Z,8.50
2019-04-16T03:21:48.740Z,8.60
2019-04-16T03:24:17.164Z,8.70
2019-04-16T03:26:47.707Z,8.70
2019-04-16T03:29:15.880Z,8.60
2019-04-16T03:31:44.342Z,8.60
2019-04-16T03:34:12.906Z,8.60
2019-04-16T03:36:41.342Z,8.50
2019-04-16T03:39:13.229Z,8.60
2019-04-16T03:41:39.940Z,8.60
2019-04-16T03:44:08.390Z,8.60
2019-04-16T03:46:39.827Z,8.60
2019-04-16T03:49:06.984Z,8.70
2019-04-16T03:51:36.478Z,8.70
2019-04-16T03:54:05.208Z,8.60
2019-04-16T03:56:34.079Z,8.50
2019-04-16T03:59:02.500Z,8.60
2019-04-16T04:01:30.948Z,8.60
2019-04-16T04:03:59.381Z,8.60
2019-04-16T04:06:27.825Z,8.50
2019-04-16T04:08:56.248Z,8.50
2019-04-16T04:11:24.689Z,8.50
2019-04-16T04:13:53.210Z,8.50
2019-04-16T04:16:21.637Z,8.50
2019-04-16T04:18:50.650Z,8.50
2019-04-16T04:21:22.049Z,8.50
2019-04-16T04:23:49.280Z,8.40
2019-04-16T04:26:17.828Z,8.30
2019-04-16T04:28:48.634Z,8.30
2019-04-16T04:31:16.715Z,8.40
2019-04-16T04:33:45.238Z,8.40
2019-04-16T04:36:13.682Z,8.50
2019-04-16T04:38:42.309Z,8.50
2019-04-16T04:41:10.881Z,8.40
2019-04-16T04:43:39.380Z,8.30
2019-04-16T04:46:12.552Z,8.30
2019-04-16T04:48:38.372Z,8.20
2019-04-16T04:51:08.234Z,8.20
2019-04-16T04:53:37.116Z,8.20
2019-04-16T04:56:05.549Z,8.20
2019-04-16T04:58:34.846Z,8.20
2019-04-16T05:01:03.535Z,8.20
2019-04-16T05:03:48.752Z,8.20
2019-04-16T05:06:26.637Z,8.10
2019-04-16T05:08:51.792Z,8.20
2019-04-16T05:14:08.350Z,8.30
2019-04-16T05:16:36.789Z,8.30
2019-04-16T05:19:05.244Z,8.30
2019-04-16T05:21:33.813Z,8.40
2019-04-16T05:24:02.276Z,8.60
2019-04-16T05:26:33.612Z,8.70
2019-04-16T05:29:02.615Z,8.80
2019-04-16T05:31:31.286Z,8.90
2019-04-16T05:34:02.298Z,9.00
2019-04-16T05:36:29.936Z,9.00
2019-04-16T05:38:58.380Z,9.00
2019-04-16T05:41:26.812Z,9.10
2019-04-16T05:43:55.239Z,9.10
2019-04-16T05:46:23.830Z,9.10
2019-04-16T05:48:53.969Z,9.20
2019-04-16T05:51:22.489Z,9.40
2019-04-16T05:53:52.826Z,9.40
2019-04-16T05:56:24.734Z,9.40
2019-04-16T05:58:53.072Z,9.50
2019-04-16T06:01:39.116Z,9.30
2019-04-16T06:04:12.539Z,9.40
2019-04-16T06:06:41.004Z,9.50
2019-04-16T06:09:12.188Z,9.50
2019-04-16T06:11:39.937Z,9.50
2019-04-16T06:14:16.881Z,9.60
2019-04-16T06:16:44.853Z,9.60
2019-04-16T06:19:20.876Z,9.70
2019-04-16T06:22:02.623Z,9.80
2019-04-16T06:24:41.857Z,9.70
2019-04-16T06:27:14.621Z,9.60
2019-04-16T06:30:02.320Z,9.60
2019-04-16T06:32:35.345Z,9.60
2019-04-16T06:35:05.797Z,9.70
2019-04-16T06:37:54.125Z,9.70
2019-04-16T06:40:39.276Z,9.90
2019-04-16T06:43:11.915Z,10.10
2019-04-16T06:45:44.436Z,10.10
2019-04-16T06:48:14.559Z,10.20
2019-04-16T06:51:01.197Z,10.10
2019-04-16T06:53:35.579Z,10.20
2019-04-16T06:56:08.690Z,10.20
2019-04-16T06:58:50.782Z,10.30
2019-04-16T07:01:15.009Z,10.20
2019-04-16T07:03:47.648Z,10.30
2019-04-16T07:06:35.992Z,10.50
2019-04-16T07:09:06.892Z,10.60
2019-04-16T07:11:35.523Z,10.80
2019-04-16T07:14:04.396Z,10.90
2019-04-16T07:16:34.564Z,11.00
2019-04-16T07:19:10.153Z,11.20
2019-04-16T07:21:36.064Z,11.40
2019-04-16T07:24:04.612Z,11.50
2019-04-16T07:26:46.152Z,11.40
2019-04-16T07:29:18.848Z,11.60
2019-04-16T07:32:03.099Z,12.10
2019-04-16T07:34:36.568Z,12.40
2019-04-16T07:37:17.164Z,12.90
2019-04-16T07:40:08.338Z,13.40
2019-04-16T07:42:51.331Z,14.10
2019-04-16T07:45:15.550Z,16.10
2019-04-16T07:48:06.409Z,16.90
2019-04-16T07:50:36.105Z,17.90
2019-04-16T07:53:13.341Z,17.70
2019-04-16T07:55:43.677Z,17.90
2019-04-16T07:58:15.697Z,18.70
2019-04-16T08:00:44.219Z,19.20
2019-04-16T08:03:15.463Z,18.60
2019-04-16T08:05:43.989Z,17.40
2019-04-16T08:08:12.498Z,17.10
2019-04-16T08:10:41.016Z,17.10
2019-04-16T08:13:17.018Z,17.10
2019-04-16T08:15:45.844Z,17.80
2019-04-16T08:18:14.293Z,18.10
2019-04-16T08:20:44.427Z,18.20
2019-04-16T08:23:26.305Z,18.50
2019-04-16T08:26:02.343Z,18.70
2019-04-16T08:28:25.741Z,18.60
2019-04-16T08:30:54.474Z,18.70
2019-04-16T08:33:28.322Z,18.40
2019-04-16T08:35:55.571Z,18.70
2019-04-16T08:38:25.850Z,18.70
2019-04-16T08:40:53.535Z,18.80
2019-04-16T08:43:21.981Z,18.90
2019-04-16T08:45:50.517Z,19.80
2019-04-16T08:48:19.008Z,19.90
2019-04-16T08:50:49.302Z,20.20
2019-04-16T08:53:18.295Z,21.20
2019-04-16T08:55:46.737Z,21.30
2019-04-16T08:58:15.233Z,21.00
2019-04-16T09:01:00.168Z,21.30
2019-04-16T09:03:36.063Z,21.70
2019-04-16T09:06:04.736Z,20.80
2019-04-16T09:08:46.842Z,20.60
2019-04-16T09:11:23.287Z,20.30
2019-04-16T09:14:02.630Z,20.70
2019-04-16T09:16:32.864Z,20.90
2019-04-16T09:19:02.938Z,21.30
2019-04-16T09:21:37.245Z,21.40
2019-04-16T09:24:22.192Z,21.30
2019-04-16T09:26:55.662Z,21.80
2019-04-16T09:29:31.010Z,22.20
2019-04-16T09:32:17.168Z,21.90
2019-04-16T09:35:07.460Z,21.40
2019-04-16T09:37:32.280Z,20.70
2019-04-16T09:40:15.886Z,20.60
2019-04-16T09:42:36.188Z,20.40
2019-04-16T09:45:06.894Z,20.10
2019-04-16T09:47:35.940Z,20.30
2019-04-16T09:50:09.626Z,21.10
2019-04-16T09:52:36.318Z,20.60
2019-04-16T09:55:05.598Z,20.60
2019-04-16T09:57:34.044Z,21.20
2019-04-16T10:00:04.196Z,21.00
2019-04-16T10:02:33.570Z,20.50
2019-04-16T10:05:02.142Z,19.90
2019-04-16T10:07:30.603Z,20.00
2019-04-16T10:09:59.049Z,20.60
2019-04-16T10:12:27.529Z,21.30
2019-04-16T10:14:56.456Z,21.10
2019-04-16T10:17:24.900Z,21.20
2019-04-16T10:19:53.604Z,21.20
2019-04-16T10:22:22.249Z,21.00
2019-04-16T10:24:57.980Z,21.10
2019-04-16T10:27:31.272Z,21.30
2019-04-16T10:29:58.454Z,21.30
2019-04-16T10:32:28.601Z,21.70
2019-04-16T10:34:57.188Z,22.30
2019-04-16T10:37:25.694Z,22.20
2019-04-16T10:39:58.788Z,22.00
2019-04-16T10:42:45.270Z,22.40
2019-04-16T10:45:18.202Z,23.10
2019-04-16T10:47:57.244Z,22.50
2019-04-16T10:50:36.106Z,22.20
2019-04-16T10:53:15.153Z,22.40
2019-04-16T10:56:01.155Z,22.60
2019-04-16T10:58:50.371Z,22.60
2019-04-16T11:01:20.477Z,22.30
2019-04-16T11:04:07.847Z,22.90
2019-04-16T11:06:38.868Z,23.00
2019-04-16T11:09:08.093Z,22.80
2019-04-16T11:11:36.705Z,22.40
2019-04-16T11:14:05.364Z,22.20
2019-04-16T11:16:35.975Z,22.10
2019-04-16T11:19:04.214Z,22.20
2019-04-16T11:21:32.747Z,22.20
2019-04-16T11:24:01.182Z,22.90
2019-04-16T11:26:29.704Z,23.30
2019-04-16T11:29:01.095Z,22.60
2019-04-16T11:31:29.805Z,22.00
2019-04-16T11:33:58.357Z,22.00
2019-04-16T11:36:30.560Z,21.90
2019-04-16T11:38:56.968Z,21.90
2019-04-16T11:41:25.406Z,22.30
2019-04-16T11:43:53.980Z,22.40
2019-04-16T11:46:22.647Z,22.10
2019-04-16T11:48:51.249Z,21.70
2019-04-16T11:51:19.774Z,21.90
2019-04-16T11:53:48.277Z,22.10
2019-04-16T11:56:16.737Z,21.90
2019-04-16T11:58:46.046Z,22.00
2019-04-16T12:01:22.875Z,22.40
2019-04-16T12:03:59.833Z,22.80
2019-04-16T12:06:38.607Z,23.00
2019-04-16T12:09:18.863Z,22.20
2019-04-16T12:11:49.049Z,22.00
2019-04-16T12:14:30.693Z,21.80
2019-04-16T12:16:51.184Z,21.70
2019-04-16T12:19:24.065Z,21.40
2019-04-16T12:22:03.364Z,21.50
2019-04-16T12:24:45.369Z,21.50
2019-04-16T12:27:18.201Z,21.60
2019-04-16T12:29:54.023Z,21.60
2019-04-16T12:32:26.905Z,21.40
2019-04-16T12:34:56.010Z,21.50
2019-04-16T12:37:42.305Z,21.50
2019-04-16T12:40:12.923Z,21.70
2019-04-16T12:42:47.757Z,21.70
2019-04-16T12:45:33.588Z,21.70
2019-04-16T12:48:19.604Z,21.70
2019-04-16T12:50:52.497Z,22.10
2019-04-16T12:53:22.665Z,22.10
2019-04-16T12:56:07.498Z,22.60
2019-04-16T12:58:50.647Z,22.60
2019-04-16T13:01:20.075Z,22.20
2019-04-16T13:03:53.364Z,22.20
2019-04-16T13:06:41.101Z,22.10
2019-04-16T13:09:22.601Z,22.10
2019-04-16T13:12:10.296Z,22.40
2019-04-16T13:15:00.539Z,22.60
2019-04-16T13:17:38.213Z,22.50
2019-04-16T13:20:08.568Z,22.90
2019-04-16T13:22:38.665Z,23.10
2019-04-16T13:25:09.190Z,23.50
2019-04-16T13:27:39.279Z,23.50
2019-04-16T13:30:11.045Z,23.60
2019-04-16T13:32:39.496Z,23.40
2019-04-16T13:35:08.220Z,23.10
2019-04-16T13:37:37.962Z,23.00
2019-04-16T13:40:11.758Z,23.40
2019-04-16T13:42:40.196Z,23.50
2019-04-16T13:45:29.655Z,23.40
2019-04-16T13:48:14.847Z,22.80
2019-04-16T13:50:39.886Z,22.20
2019-04-16T13:53:14.519Z,22.20
2019-04-16T13:55:56.145Z,22.30
2019-04-16T13:58:26.416Z,22.30
2019-04-16T14:01:02.287Z,22.20
2019-04-16T14:03:30.738Z,22.20
2019-04-16T14:05:59.269Z,21.80
2019-04-16T14:08:27.776Z,21.50
2019-04-16T14:10:56.239Z,21.30
2019-04-16T14:13:24.677Z,21.30
2019-04-16T14:15:53.115Z,21.40
2019-04-16T14:18:22.001Z,21.60
2019-04-16T14:20:50.558Z,21.90
2019-04-16T14:23:18.996Z,21.90
2019-04-16T14:25:47.534Z,21.80
2019-04-16T14:28:17.982Z,22.10
2019-04-16T14:30:48.034Z,22.20
2019-04-16T14:33:18.123Z,22.40
2019-04-16T14:35:46.566Z,22.10
2019-04-16T14:38:16.659Z,22.10
2019-04-16T14:40:45.095Z,21.80
2019-04-16T14:43:15.191Z,21.30
2019-04-16T14:45:58.029Z,21.00
2019-04-16T14:48:18.201Z,20.90
2019-04-16T14:50:46.712Z,20.80
2019-04-16T14:53:16.805Z,20.70
2019-04-16T14:55:59.250Z,20.70
2019-04-16T14:58:33.554Z,20.60
2019-04-16T15:01:21.689Z,20.40
2019-04-16T15:04:00.339Z,20.30
2019-04-16T15:06:48.954Z,20.10
2019-04-16T15:09:23.829Z,20.00
2019-04-16T15:12:09.922Z,19.90
2019-04-16T15:14:54.871Z,19.90
2019-04-16T15:17:29.372Z,19.90
2019-04-16T15:20:08.431Z,19.80
2019-04-16T15:22:38.533Z,19.80
2019-04-16T15:25:25.205Z,19.70
2019-04-16T15:27:55.965Z,19.60
2019-04-16T15:30:44.049Z,19.50
2019-04-16T15:33:30.078Z,19.60
2019-04-16T15:36:02.847Z,19.60
2019-04-16T15:38:41.631Z,19.50
2019-04-16T15:41:23.584Z,19.50
2019-04-16T15:43:53.907Z,19.40
2019-04-16T15:46:29.752Z,19.20
2019-04-16T15:48:59.980Z,19.20
2019-04-16T15:51:38.868Z,19.10
2019-04-16T15:54:11.438Z,19.00
2019-04-16T15:56:41.595Z,19.00
2019-04-16T15:59:26.876Z,18.90
2019-04-16T16:02:03.175Z,18.70
2019-04-16T16:04:48.039Z,18.50
2019-04-16T16:07:16.724Z,18.50
2019-04-16T16:09:58.185Z,18.40
2019-04-16T16:12:27.402Z,18.20
2019-04-16T16:14:55.901Z,18.10
2019-04-16T16:17:24.430Z,18.10
2019-04-16T16:19:52.860Z,18.10
2019-04-16T16:22:21.380Z,18.10
2019-04-16T16:24:49.816Z,18.10
2019-04-16T16:27:18.422Z,18.00
2019-04-16T16:29:46.933Z,18.00
2019-04-16T16:32:15.480Z,17.90
2019-04-16T16:34:43.931Z,17.60
2019-04-16T16:37:12.385Z,17.50
2019-04-16T16:39:40.892Z,17.40
2019-04-16T16:42:09.348Z,17.50
2019-04-16T16:44:37.937Z,17.50
2019-04-16T16:47:08.082Z,17.50
2019-04-16T16:49:36.534Z,17.40
2019-04-16T16:52:21.958Z,17.40
2019-04-16T16:54:52.050Z,17.30
2019-04-16T16:57:22.319Z,17.30
2019-04-16T17:00:01.154Z,17.10
2019-04-16T17:02:40.171Z,17.00
2019-04-16T17:05:10.341Z,17.00
2019-04-16T17:07:38.775Z,16.90
2019-04-16T17:10:07.311Z,16.90
2019-04-16T17:12:35.869Z,16.80
2019-04-16T17:15:08.962Z,16.80
2019-04-16T17:17:36.612Z,16.70
2019-04-16T17:20:05.315Z,16.70
2019-04-16T17:22:33.787Z,16.70
2019-04-16T17:25:02.234Z,16.60
2019-04-16T17:27:30.663Z,16.60
2019-04-16T17:29:59.115Z,16.50
2019-04-16T17:32:27.723Z,16.50
2019-04-16T17:34:56.291Z,16.40
2019-04-16T17:37:27.925Z,16.30
2019-04-16T17:39:56.815Z,16.20
2019-04-16T17:42:26.997Z,16.30
2019-04-16T17:45:13.175Z,16.20
2019-04-16T17:47:55.732Z,16.10
2019-04-16T17:50:40.404Z,16.00
2019-04-16T17:53:25.783Z,16.00
2019-04-16T17:56:01.759Z,16.00
2019-04-16T17:58:38.333Z,16.00
2019-04-16T18:01:20.409Z,16.10
2019-04-16T18:03:56.139Z,16.10
2019-04-16T18:06:44.178Z,16.10
2019-04-16T18:09:16.968Z,16.00
2019-04-16T18:11:53.239Z,16.00
2019-04-16T18:14:41.496Z,16.00
2019-04-16T18:17:11.691Z,15.90
2019-04-16T18:19:57.048Z,15.70
2019-04-16T18:22:29.846Z,15.70
2019-04-16T18:25:16.049Z,15.60
2019-04-16T18:27:48.359Z,15.50
2019-04-16T18:30:36.553Z,15.50
2019-04-16T18:33:18.367Z,15.50
2019-04-16T18:35:54.684Z,15.50
2019-04-16T18:38:24.883Z,15.50
2019-04-16T18:41:02.000Z,15.60
2019-04-16T18:43:45.509Z,15.70
2019-04-16T18:46:21.321Z,15.80
2019-04-16T18:48:55.070Z,15.90
2019-04-16T18:51:24.197Z,15.90
2019-04-16T18:53:52.705Z,15.80
2019-04-16T18:56:21.220Z,15.70
2019-04-16T18:58:49.743Z,15.70
2019-04-16T19:01:19.907Z,15.60
2019-04-16T19:03:48.364Z,15.50
2019-04-16T19:06:17.063Z,15.50
2019-04-16T19:08:45.629Z,15.50
2019-04-16T19:11:14.168Z,15.50
2019-04-16T19:13:42.598Z,15.40
2019-04-16T19:16:11.127Z,15.30
2019-04-16T19:18:39.564Z,15.30
2019-04-16T19:21:08.236Z,15.30
2019-04-16T19:23:36.732Z,15.20
2019-04-16T19:26:05.627Z,15.10
2019-04-16T19:28:36.309Z,15.10
2019-04-16T19:31:07.356Z,15.00
2019-04-16T19:33:38.273Z,14.90
2019-04-16T19:36:06.112Z,14.90
2019-04-16T19:38:39.354Z,14.80
2019-04-16T19:41:07.997Z,14.80
2019-04-16T19:43:36.440Z,14.70
2019-04-16T19:46:05.048Z,14.70
2019-04-16T19:48:35.735Z,14.70
2019-04-16T19:51:07.225Z,14.70
2019-04-16T19:53:33.908Z,14.70
2019-04-16T19:56:02.373Z,14.80
2019-04-16T19:58:30.814Z,14.90
2019-04-16T20:00:59.683Z,15.00
2019-04-16T20:03:30.469Z,15.00
2019-04-16T20:05:58.408Z,15.10
2019-04-16T20:08:26.912Z,15.00
2019-04-16T20:10:55.353Z,15.00
2019-04-16T20:13:23.863Z,15.00
2019-04-16T20:15:52.326Z,15.00
2019-04-16T20:18:22.410Z,14.90
2019-04-16T20:20:50.930Z,14.90
2019-04-16T20:23:19.366Z,14.80
2019-04-16T20:25:47.818Z,14.80
2019-04-16T20:28:16.404Z,14.80
2019-04-16T20:30:45.132Z,14.70
2019-04-16T20:33:13.552Z,14.70
2019-04-16T20:35:42.052Z,14.70
2019-04-16T20:38:10.509Z,14.70
2019-04-16T20:40:38.956Z,14.70
2019-04-16T20:43:07.408Z,14.70
2019-04-16T20:45:36.016Z,14.70
2019-04-16T20:48:04.535Z,14.70
2019-04-16T20:50:33.030Z,14.70
2019-04-16T20:53:06.196Z,14.70
2019-04-16T20:55:31.867Z,14.60
2019-04-16T20:58:00.839Z,14.60
2019-04-16T21:00:31.016Z,14.60
2019-04-16T21:03:02.841Z,14.60
2019-04-16T21:05:35.485Z,14.60
2019-04-16T21:08:00.307Z,14.70
2019-04-16T21:10:29.005Z,14.60
2019-04-16T21:13:00.514Z,14.60
2019-04-16T21:15:29.069Z,14.60
2019-04-16T21:18:02.422Z,14.60
2019-04-16T21:20:38.057Z,14.60
2019-04-16T21:23:07.137Z,14.60
2019-04-16T21:25:35.833Z,14.50
2019-04-16T21:28:10.036Z,14.40
2019-04-16T21:30:42.879Z,14.30
2019-04-16T21:33:20.531Z,14.30
2019-04-16T21:35:51.217Z,14.30
2019-04-16T21:41:16.419Z,14.10
2019-04-16T21:43:44.937Z,13.90
2019-04-16T21:46:13.397Z,13.90
2019-04-16T21:48:41.834Z,13.80
2019-04-16T21:51:10.708Z,13.80
2019-04-16T21:53:39.273Z,13.90
2019-04-16T21:56:08.661Z,13.90
2019-04-16T21:58:37.540Z,14.10
2019-04-16T22:01:10.186Z,14.10
2019-04-16T22:03:42.055Z,14.20
2019-04-16T22:06:08.836Z,14.20
2019-04-16T22:08:44.926Z,14.20
2019-04-16T22:11:13.399Z,14.20
2019-04-16T22:13:50.652Z,14.20
2019-04-16T22:16:18.281Z,14.10
2019-04-16T22:18:46.695Z,14.10
2019-04-16T22:21:17.466Z,14.20
2019-04-16T22:23:50.168Z,14.20
2019-04-16T22:26:16.067Z,14.10
2019-04-16T22:28:45.075Z,14.10
2019-04-16T22:31:13.528Z,14.00
2019-04-16T22:33:42.206Z,14.00
2019-04-16T22:36:10.630Z,14.00
2019-04-16T22:38:40.373Z,14.00
2019-04-16T22:41:13.164Z,14.00
2019-04-16T22:43:43.439Z,14.10
2019-04-16T22:46:13.606Z,14.00
2019-04-16T22:48:54.620Z,14.00
2019-04-16T22:51:23.917Z,13.90
2019-04-16T22:53:52.365Z,13.90
2019-04-16T22:56:22.572Z,14.00
2019-04-16T22:58:51.472Z,13.90
2019-04-16T23:01:21.646Z,13.90
2019-04-16T23:03:53.315Z,13.80
2019-04-16T23:06:22.040Z,13.70
2019-04-16T23:08:50.611Z,13.60
2019-04-16T23:11:23.364Z,13.60
2019-04-16T23:13:49.321Z,13.60
2019-04-16T23:16:17.874Z,13.50
2019-04-16T23:18:51.039Z,13.50
2019-04-16T23:21:16.945Z,13.50
2019-04-16T23:23:47.719Z,13.40
2019-04-16T23:29:03.281Z,13.40
2019-04-16T23:31:35.910Z,13.40
2019-04-16T23:34:06.358Z,13.40
2019-04-16T23:36:35.044Z,13.30
2019-04-16T23:41:55.965Z,13.30
2019-04-16T23:44:29.043Z,13.30
2019-04-16T23:47:17.310Z,13.30
2019-04-16T23:49:47.820Z,13.30
2019-04-16T23:52:18.170Z,13.20
2019-04-16T23:54:48.332Z,13.20
2019-04-16T23:57:24.940Z,13.20
2019-04-16T23:59:55.813Z,13.20
